Weather at Bintulu Airport

Public forecast

Using degrees Celsius for public forecast. Weather courtesy of forecast.io.

Current aviation weather report (METAR) for Bintulu Airport

Retrieved 2021/10/28 09:00 UTC (58 minutes ago):

WBGB 280900Z 27005KT 220V310 8000 -SHRA FEW015CB SCT016 27/25 Q1009

Aviation forecast (TAF) for Bintulu Airport

Retrieved 2021/10/28 06:00 UTC (4 hours ago):

TAF WBGB 280500Z 2806/2906 28006KT 9999 SCT016 TEMPO 2806/2810 3000 TSRA SCT014 FEW015CB TEMPO 2810/2814 5000 RA SCT014